Time;durP1;ratioP1;P1;durP2;ratioP2;P2;SDS_P1;SDS_P2;PMS_P1;PMS_P2;Temp;Humidity;BMP_temperature;BMP_pressure;BME280_temperature;BME280_humidity;BME280_pressure;Samples;Min_cycle;Max_cycle;Signal;HPM_P1;HPM_P2
2022/10/10 03:02:28;;;;;;;0.90;0.90;;;14.30;83.70;;;;;;5221632;23;20493;-73
2022/10/10 03:04:55;;;;;;;0.70;0.70;;;14.20;83.90;;;;;;4994690;28;20470;-73
2022/10/10 03:07:22;;;;;;;0.83;0.83;;;14.20;84.00;;;;;;4994794;28;20461;-73
2022/10/10 03:09:48;;;;;;;0.77;0.77;;;14.20;83.80;;;;;;4994715;28;20461;-73
2022/10/10 03:12:15;;;;;;;0.70;0.70;;;14.00;84.50;;;;;;4994443;28;20473;-73
2022/10/10 03:14:42;;;;;;;1.10;0.80;;;13.90;84.80;;;;;;4995912;28;20576;-73
2022/10/10 03:17:08;;;;;;;0.70;0.70;;;14.00;85.00;;;;;;4994815;28;20527;-73
2022/10/10 03:19:37;;;;;;;0.80;0.80;;;14.10;84.60;;;;;;4994989;28;20461;-73
2022/10/10 03:22:04;;;;;;;0.73;0.73;;;14.20;84.30;;;;;;4994970;28;20564;-73
2022/10/10 03:24:30;;;;;;;0.90;0.90;;;14.30;83.90;;;;;;4994639;28;20450;-73
2022/10/10 03:26:57;;;;;;;0.70;0.70;;;14.40;83.60;;;;;;4994380;28;20983;-73
2022/10/10 03:29:24;;;;;;;0.80;0.80;;;14.40;83.60;;;;;;4994713;28;20453;-72
2022/10/10 03:31:50;;;;;;;0.83;0.83;;;14.30;83.70;;;;;;4994623;28;20519;-73
2022/10/10 03:34:17;;;;;;;0.70;0.70;;;14.40;83.60;;;;;;4994657;28;20476;-73
2022/10/10 03:36:45;;;;;;;0.80;0.70;;;14.40;83.60;;;;;;4994341;28;20480;-72
2022/10/10 03:39:12;;;;;;;1.17;0.70;;;14.50;83.50;;;;;;4994732;28;20452;-73
2022/10/10 03:41:38;;;;;;;0.80;0.70;;;14.50;83.20;;;;;;4994177;28;20981;-73
2022/10/10 03:44:05;;;;;;;0.83;0.83;;;14.60;83.20;;;;;;4994224;28;20880;-73
2022/10/10 03:46:32;;;;;;;0.93;0.93;;;14.60;83.10;;;;;;4994260;28;20472;-73
2022/10/10 03:48:58;;;;;;;0.70;0.70;;;14.60;82.90;;;;;;4994371;28;20460;-73
2022/10/10 03:51:25;;;;;;;0.87;0.87;;;14.60;83.10;;;;;;4994105;28;20461;-73
2022/10/10 03:53:54;;;;;;;0.90;0.90;;;14.60;83.10;;;;;;4995037;28;20449;-73
2022/10/10 03:56:21;;;;;;;0.70;0.70;;;14.50;83.40;;;;;;4993914;28;20489;-73
2022/10/10 03:58:47;;;;;;;1.73;0.80;;;14.60;83.30;;;;;;4993927;28;20500;-73
2022/10/10 04:01:14;;;;;;;0.70;0.70;;;14.70;83.00;;;;;;4993316;28;21012;-72
2022/10/10 04:03:41;;;;;;;0.70;0.70;;;14.80;83.00;;;;;;4994084;28;20445;-73
2022/10/10 04:06:07;;;;;;;0.80;0.80;;;14.80;83.00;;;;;;4996496;28;20496;-73
2022/10/10 04:08:34;;;;;;;0.90;0.90;;;14.90;82.70;;;;;;4997726;28;20496;-73
2022/10/10 04:11:02;;;;;;;0.83;0.83;;;14.90;82.60;;;;;;4997148;28;21007;-73
2022/10/10 04:13:29;;;;;;;0.80;0.80;;;14.90;82.50;;;;;;4997592;28;20500;-72
2022/10/10 04:15:56;;;;;;;0.80;0.80;;;14.90;82.50;;;;;;4997591;28;20481;-73
2022/10/10 04:18:23;;;;;;;0.97;0.70;;;14.90;82.50;;;;;;4997882;28;20588;-73
2022/10/10 04:20:50;;;;;;;0.60;0.60;;;14.90;82.40;;;;;;4997440;28;20462;-73
2022/10/10 04:23:17;;;;;;;0.70;0.70;;;15.00;82.40;;;;;;4997806;28;20456;-73
2022/10/10 04:25:44;;;;;;;0.83;0.80;;;15.00;82.30;;;;;;4997410;28;20457;-73
2022/10/10 04:28:13;;;;;;;0.70;0.70;;;14.90;82.20;;;;;;4997355;28;20479;-73
2022/10/10 04:30:40;;;;;;;0.70;0.70;;;14.90;82.30;;;;;;4997123;28;20460;-73
2022/10/10 04:33:06;;;;;;;0.77;0.77;;;15.00;82.10;;;;;;4997024;28;20449;-73
2022/10/10 04:35:33;;;;;;;0.73;0.73;;;15.00;82.00;;;;;;4996865;28;20485;-73
2022/10/10 04:38:00;;;;;;;0.90;0.80;;;15.00;82.00;;;;;;4997002;28;20461;-73
2022/10/10 04:40:27;;;;;;;0.70;0.70;;;14.90;82.00;;;;;;4996676;28;20453;-73
2022/10/10 04:42:54;;;;;;;0.73;0.73;;;14.80;82.10;;;;;;4997081;28;20512;-73
2022/10/10 04:45:25;;;;;;;0.80;0.80;;;14.90;82.20;;;;;;4997014;28;20441;-73
2022/10/10 04:47:51;;;;;;;0.70;0.70;;;14.90;82.10;;;;;;4997537;28;20460;-73
2022/10/10 04:50:18;;;;;;;0.80;0.80;;;15.00;81.90;;;;;;4996565;28;21011;-73
2022/10/10 04:52:45;;;;;;;0.80;0.73;;;15.00;81.80;;;;;;4996533;28;20468;-73
2022/10/10 04:55:12;;;;;;;0.80;0.80;;;15.00;81.80;;;;;;4996522;28;20849;-73
2022/10/10 04:57:38;;;;;;;0.80;0.80;;;15.00;81.70;;;;;;4996638;28;20445;-73
2022/10/10 05:00:06;;;;;;;0.80;0.80;;;14.80;82.40;;;;;;4996357;28;20458;-73
2022/10/10 05:02:34;;;;;;;1.10;0.67;;;14.80;82.60;;;;;;4997192;28;20482;-73
2022/10/10 05:05:02;;;;;;;0.77;0.77;;;14.80;82.60;;;;;;4997423;28;20454;-73
2022/10/10 05:07:28;;;;;;;0.73;0.70;;;14.80;82.40;;;;;;4997279;28;20461;-73
2022/10/10 05:09:55;;;;;;;0.77;0.77;;;14.80;82.70;;;;;;4997750;28;20947;-73
2022/10/10 05:12:22;;;;;;;0.70;0.70;;;14.80;82.70;;;;;;4996830;28;20472;-73
2022/10/10 05:14:48;;;;;;;0.80;0.80;;;14.70;82.90;;;;;;4997002;28;20454;-73
2022/10/10 05:17:15;;;;;;;0.70;0.70;;;14.60;83.20;;;;;;4996027;28;20459;-73
2022/10/10 05:19:43;;;;;;;1.10;1.00;;;14.40;84.00;;;;;;4997025;28;20500;-73
2022/10/10 05:22:10;;;;;;;1.07;0.70;;;14.40;84.00;;;;;;4997398;28;20540;-73
2022/10/10 05:24:37;;;;;;;0.80;0.80;;;14.40;84.10;;;;;;4997276;28;20457;-73
2022/10/10 05:27:04;;;;;;;0.70;0.70;;;14.30;84.60;;;;;;4997066;28;20460;-73
2022/10/10 05:29:31;;;;;;;0.80;0.80;;;14.50;84.20;;;;;;4997045;28;20460;-72
2022/10/10 05:31:57;;;;;;;0.70;0.70;;;14.60;83.80;;;;;;4997227;28;20465;-73
2022/10/10 05:34:24;;;;;;;0.80;0.80;;;14.60;83.20;;;;;;4997081;28;20453;-72
2022/10/10 05:36:52;;;;;;;0.70;0.70;;;14.40;84.20;;;;;;4995575;28;20493;-72
2022/10/10 05:39:18;;;;;;;0.80;0.80;;;14.20;85.70;;;;;;4995359;28;20867;-72
2022/10/10 05:41:45;;;;;;;0.80;0.70;;;14.20;85.60;;;;;;4995535;28;20461;-74
2022/10/10 05:44:12;;;;;;;1.00;0.90;;;14.40;84.70;;;;;;4995373;28;20445;-73
2022/10/10 05:46:39;;;;;;;0.60;0.60;;;14.40;84.40;;;;;;4995346;28;20443;-74
2022/10/10 05:49:05;;;;;;;0.70;0.67;;;14.40;84.40;;;;;;4995963;28;20449;-73
2022/10/10 05:51:32;;;;;;;0.70;0.70;;;14.50;84.20;;;;;;4996647;28;20549;-72
2022/10/10 05:54:00;;;;;;;1.10;1.00;;;14.50;84.00;;;;;;4996321;28;20446;-73
2022/10/10 05:56:27;;;;;;;1.00;1.00;;;14.50;84.10;;;;;;4995611;28;20481;-73
2022/10/10 05:58:53;;;;;;;1.00;0.90;;;14.40;84.70;;;;;;4994725;28;20450;-73
2022/10/10 06:01:20;;;;;;;0.70;0.70;;;14.40;84.80;;;;;;4994945;28;20492;-75
2022/10/10 06:03:51;;;;;;;0.90;0.80;;;14.50;84.60;;;;;;4995131;28;20445;-74
2022/10/10 06:06:18;;;;;;;0.80;0.80;;;14.70;84.40;;;;;;4995122;28;20444;-75
2022/10/10 06:08:45;;;;;;;1.33;0.73;;;14.80;84.10;;;;;;4995187;28;20456;-75
2022/10/10 06:11:14;;;;;;;0.70;0.70;;;15.00;83.70;;;;;;4994712;28;20469;-74
2022/10/10 06:13:41;;;;;;;0.80;0.80;;;15.00;83.60;;;;;;4995905;28;20457;-74
2022/10/10 06:16:08;;;;;;;0.80;0.80;;;15.10;83.20;;;;;;4994527;28;20999;-75
2022/10/10 06:18:35;;;;;;;1.00;0.90;;;15.10;82.90;;;;;;4995267;28;20499;-75
2022/10/10 06:21:03;;;;;;;0.70;0.70;;;15.20;83.00;;;;;;4994638;28;20465;-74
2022/10/10 06:23:30;;;;;;;0.70;0.70;;;15.10;83.10;;;;;;4994728;28;20460;-74
2022/10/10 06:25:57;;;;;;;0.80;0.80;;;15.00;83.60;;;;;;4994548;28;20445;-74
2022/10/10 06:28:25;;;;;;;0.80;0.80;;;15.20;83.20;;;;;;4994378;28;20853;-73
2022/10/10 06:30:52;;;;;;;1.00;1.00;;;15.30;82.90;;;;;;4994333;28;20477;-75
2022/10/10 06:33:19;;;;;;;0.83;0.80;;;15.40;82.70;;;;;;4994487;28;20446;-75
2022/10/10 06:35:47;;;;;;;2.83;0.80;;;15.40;82.70;;;;;;4995752;28;20481;-75
2022/10/10 06:38:15;;;;;;;0.90;0.90;;;15.40;82.50;;;;;;4994671;28;20464;-76
2022/10/10 06:40:43;;;;;;;0.93;0.83;;;15.40;82.60;;;;;;4994519;28;20481;-74
2022/10/10 06:43:11;;;;;;;0.80;0.80;;;15.40;82.40;;;;;;4994660;28;20457;-76
2022/10/10 06:45:41;;;;;;;0.80;0.70;;;15.50;82.40;;;;;;4994645;28;20445;-75
2022/10/10 06:48:08;;;;;;;0.83;0.83;;;15.60;82.00;;;;;;4994207;28;20445;-74
2022/10/10 06:50:36;;;;;;;0.80;0.80;;;15.60;81.70;;;;;;4994282;28;20911;-75
2022/10/10 06:53:03;;;;;;;0.70;0.70;;;15.50;82.30;;;;;;4994254;28;20511;-75
2022/10/10 06:55:30;;;;;;;0.80;0.80;;;15.40;82.50;;;;;;4994080;28;20476;-76
2022/10/10 06:57:57;;;;;;;0.73;0.73;;;15.50;82.60;;;;;;4994326;28;20449;-74
2022/10/10 07:00:24;;;;;;;0.83;0.70;;;15.50;82.70;;;;;;4994198;28;20484;-74
2022/10/10 07:02:52;;;;;;;1.07;0.90;;;15.50;82.80;;;;;;4994192;28;20460;-75
2022/10/10 07:05:19;;;;;;;0.80;0.80;;;15.50;82.70;;;;;;4994875;28;20525;-75
2022/10/10 07:07:46;;;;;;;0.73;0.70;;;15.60;83.10;;;;;;4994444;28;20441;-74
2022/10/10 07:10:15;;;;;;;0.70;0.70;;;15.70;82.90;;;;;;4995000;28;20552;-75
2022/10/10 07:12:41;;;;;;;0.70;0.70;;;16.10;82.10;;;;;;4994253;28;20465;-74
2022/10/10 07:15:09;;;;;;;0.70;0.70;;;16.30;80.30;;;;;;4994572;28;20457;-74
2022/10/10 07:17:36;;;;;;;0.60;0.60;;;16.50;80.10;;;;;;4994155;28;20895;-73
2022/10/10 07:20:05;;;;;;;0.70;0.70;;;16.60;79.40;;;;;;4994314;28;20445;-74
2022/10/10 07:22:31;;;;;;;0.70;0.70;;;16.20;80.60;;;;;;4993893;28;20478;-74
2022/10/10 07:24:58;;;;;;;0.90;0.90;;;16.20;81.10;;;;;;4994539;28;20450;-71
2022/10/10 07:27:25;;;;;;;0.70;0.70;;;16.10;81.10;;;;;;4994051;28;20595;-76
2022/10/10 07:29:52;;;;;;;0.60;0.60;;;16.20;81.30;;;;;;4994194;28;20453;-75
2022/10/10 07:32:18;;;;;;;0.70;0.70;;;16.20;81.50;;;;;;4993871;28;20527;-75
2022/10/10 07:34:45;;;;;;;0.70;0.70;;;16.20;81.50;;;;;;4994271;28;21018;-74
2022/10/10 07:37:13;;;;;;;0.70;0.70;;;16.10;81.50;;;;;;4994167;28;20826;-75
2022/10/10 07:39:40;;;;;;;0.70;0.70;;;16.00;81.90;;;;;;4995107;28;20464;-75
2022/10/10 07:42:06;;;;;;;0.80;0.80;;;15.80;82.10;;;;;;4998376;28;20469;-75
2022/10/10 07:44:33;;;;;;;1.13;0.80;;;15.70;83.10;;;;;;4997819;28;20448;-76
2022/10/10 07:47:00;;;;;;;0.77;0.77;;;15.50;83.40;;;;;;4997926;28;20441;-75
2022/10/10 07:49:27;;;;;;;0.77;0.77;;;15.30;84.00;;;;;;4997853;28;20456;-75
2022/10/10 07:51:53;;;;;;;0.83;0.83;;;15.40;84.20;;;;;;4997938;28;20477;-75
2022/10/10 07:54:22;;;;;;;0.70;0.70;;;15.40;84.10;;;;;;4997619;28;20449;-74
2022/10/10 07:56:48;;;;;;;0.70;0.67;;;15.40;84.00;;;;;;4997087;28;21012;-75
2022/10/10 07:59:15;;;;;;;0.90;0.90;;;15.50;84.00;;;;;;4997335;28;20449;-75
2022/10/10 08:01:42;;;;;;;0.80;0.80;;;15.50;83.70;;;;;;4997347;28;20531;-76
2022/10/10 08:04:08;;;;;;;0.77;0.77;;;15.50;84.00;;;;;;4997402;28;20956;-76
2022/10/10 08:06:35;;;;;;;0.60;0.60;;;15.60;83.80;;;;;;4998293;28;20442;-75
2022/10/10 08:09:02;;;;;;;0.80;0.70;;;15.60;84.20;;;;;;4997277;28;20449;-76
2022/10/10 08:11:30;;;;;;;0.90;0.90;;;15.60;83.70;;;;;;4996982;28;20815;-76
2022/10/10 08:13:57;;;;;;;0.83;0.83;;;15.50;84.30;;;;;;4996955;28;20453;-75
2022/10/10 08:16:23;;;;;;;0.70;0.60;;;15.50;84.90;;;;;;4996820;28;20485;-76
2022/10/10 08:18:50;;;;;;;0.70;0.70;;;15.60;84.30;;;;;;4997126;28;20445;-75
2022/10/10 08:21:17;;;;;;;0.77;0.77;;;15.70;84.70;;;;;;4996740;28;20477;-76
2022/10/10 08:23:44;;;;;;;0.80;0.80;;;15.60;84.00;;;;;;4996769;28;20449;-75
2022/10/10 08:26:13;;;;;;;0.70;0.70;;;15.60;84.50;;;;;;4996768;28;20449;-76
2022/10/10 08:28:41;;;;;;;0.60;0.60;;;15.70;84.20;;;;;;4996739;28;20477;-76
2022/10/10 08:31:10;;;;;;;0.70;0.70;;;15.80;84.20;;;;;;4996567;28;20480;-76
2022/10/10 08:33:37;;;;;;;0.70;0.60;;;15.80;83.70;;;;;;4996547;28;20929;-77
2022/10/10 08:36:05;;;;;;;0.90;0.90;;;16.00;84.30;;;;;;4996965;28;20977;-76
2022/10/10 08:38:32;;;;;;;0.70;0.70;;;16.10;83.20;;;;;;4996974;28;20544;-76
2022/10/10 08:41:00;;;;;;;0.73;0.73;;;16.20;82.90;;;;;;4996596;28;20473;-77
2022/10/10 08:43:33;;;;;;;0.70;0.70;;;16.20;82.90;;;;;;4996679;28;20461;-76
2022/10/10 08:46:10;;;;;;;0.70;0.70;;;16.40;82.70;;;;;;4996444;28;20437;-75
2022/10/10 08:48:38;;;;;;;0.67;0.67;;;16.50;82.60;;;;;;4996337;28;20916;-77
2022/10/10 08:51:09;;;;;;;0.70;0.70;;;16.60;82.60;;;;;;4996304;28;20465;-76
2022/10/10 08:53:41;;;;;;;0.73;0.73;;;16.70;82.20;;;;;;4996485;28;20495;-76
2022/10/10 08:56:13;;;;;;;0.70;0.70;;;17.00;82.20;;;;;;4996424;28;20436;-77
2022/10/10 08:58:45;;;;;;;0.83;0.70;;;17.10;80.30;;;;;;4997758;28;20442;-77
2022/10/10 09:01:18;;;;;;;0.90;0.90;;;17.00;81.20;;;;;;4998380;28;20496;-77
2022/10/10 09:03:47;;;;;;;0.80;0.80;;;17.00;81.50;;;;;;4998232;28;20943;-76
2022/10/10 09:06:30;;;;;;;0.70;0.70;;;17.20;81.50;;;;;;5000217;28;20453;-75
2022/10/10 09:09:08;;;;;;;0.70;0.70;;;17.40;80.90;;;;;;4999729;28;20436;-77
2022/10/10 09:11:48;;;;;;;0.70;0.70;;;17.40;81.10;;;;;;4999252;28;20468;-77
2022/10/10 09:14:32;;;;;;;0.70;0.70;;;17.60;80.80;;;;;;5000289;28;20488;-77
2022/10/10 09:17:04;;;;;;;0.70;0.70;;;17.60;80.20;;;;;;4998255;28;20474;-74
2022/10/10 09:19:42;;;;;;;0.70;0.70;;;17.70;81.40;;;;;;4996803;28;20437;-74
2022/10/10 09:22:14;;;;;;;0.70;0.60;;;17.80;81.30;;;;;;5003303;28;20473;-77
2022/10/10 09:24:45;;;;;;;0.80;0.80;;;17.90;80.20;;;;;;4997706;28;20441;-77
2022/10/10 09:27:15;;;;;;;0.90;0.70;;;18.10;80.20;;;;;;4998001;28;20430;-77
2022/10/10 09:29:46;;;;;;;0.60;0.60;;;18.10;79.40;;;;;;4997681;28;20457;-76
2022/10/10 09:32:19;;;;;;;0.60;0.60;;;18.30;79.60;;;;;;4997591;28;20531;-76
2022/10/10 09:34:48;;;;;;;0.70;0.60;;;18.50;79.00;;;;;;4997622;28;20429;-76
2022/10/10 09:37:19;;;;;;;0.60;0.60;;;18.60;77.70;;;;;;4997209;28;20562;-77
2022/10/10 09:39:51;;;;;;;0.60;0.60;;;18.40;78.00;;;;;;4997976;28;20452;-76
2022/10/10 09:42:20;;;;;;;0.70;0.70;;;18.50;78.10;;;;;;4997712;28;20469;-77
2022/10/10 09:44:47;;;;;;;0.70;0.60;;;18.70;78.40;;;;;;4997489;28;20453;-76
2022/10/10 09:47:17;;;;;;;0.70;0.50;;;18.70;77.60;;;;;;4997350;28;20544;-77
2022/10/10 09:49:44;;;;;;;1.53;0.73;;;18.90;77.70;;;;;;4998355;28;20448;-77
2022/10/10 09:52:25;;;;;;;0.70;0.70;;;19.10;76.80;;;;;;4998145;28;20465;-77
2022/10/10 09:54:56;;;;;;;0.70;0.70;;;19.10;76.70;;;;;;4997638;28;20437;-77
2022/10/10 09:57:26;;;;;;;0.70;0.70;;;19.10;76.60;;;;;;4998174;28;20480;-77
2022/10/10 09:59:53;;;;;;;1.30;0.70;;;19.10;76.00;;;;;;4998093;28;20445;-76
2022/10/10 10:02:23;;;;;;;0.60;0.60;;;19.00;77.00;;;;;;4997058;28;20507;-77
2022/10/10 10:04:51;;;;;;;0.70;0.60;;;18.90;77.20;;;;;;4997010;28;20434;-76
2022/10/10 10:07:21;;;;;;;0.80;0.80;;;19.00;76.50;;;;;;4996608;28;20532;-77
2022/10/10 10:09:49;;;;;;;0.70;0.70;;;19.10;76.60;;;;;;4998838;28;20442;-76
2022/10/10 10:12:20;;;;;;;0.60;0.60;;;19.10;77.70;;;;;;4996734;28;20474;-77
2022/10/10 10:14:47;;;;;;;0.67;0.67;;;19.20;76.90;;;;;;4996222;28;20917;-76
2022/10/10 10:17:17;;;;;;;0.70;0.70;;;19.20;75.70;;;;;;4996160;28;20488;-76
2022/10/10 10:19:46;;;;;;;0.67;0.63;;;19.40;75.70;;;;;;4996439;28;20456;-76
2022/10/10 10:22:25;;;;;;;0.80;0.70;;;19.50;74.90;;;;;;4997141;28;20469;-77
2022/10/10 10:24:52;;;;;;;0.70;0.70;;;19.50;75.40;;;;;;5000117;28;20442;-77
2022/10/10 10:27:20;;;;;;;2.60;0.67;;;19.70;74.80;;;;;;4997377;28;20453;-76
2022/10/10 10:29:49;;;;;;;0.60;0.60;;;19.90;74.50;;;;;;5001776;28;20464;-76
2022/10/10 10:32:30;;;;;;;1.00;0.77;;;19.80;73.80;;;;;;4997150;28;20465;-76
2022/10/10 10:35:10;;;;;;;0.67;0.63;;;19.80;74.20;;;;;;4998612;28;20433;-77
2022/10/10 10:37:47;;;;;;;0.70;0.70;;;19.90;74.00;;;;;;5001627;28;20481;-75
2022/10/10 10:40:27;;;;;;;0.70;0.70;;;19.80;74.60;;;;;;4997005;28;20976;-77
2022/10/10 10:43:15;;;;;;;0.67;0.67;;;19.90;73.80;;;;;;5001136;28;20449;-77
2022/10/10 10:45:53;;;;;;;0.70;0.70;;;20.00;72.80;;;;;;4999881;28;20453;-77
2022/10/10 10:48:28;;;;;;;0.70;0.60;;;19.90;74.20;;;;;;5000393;28;20426;-76
2022/10/10 10:50:59;;;;;;;0.70;0.70;;;19.80;73.90;;;;;;5000545;28;20472;-76
2022/10/10 10:53:36;;;;;;;0.70;0.70;;;19.90;74.20;;;;;;4994597;28;20445;-76
2022/10/10 10:56:14;;;;;;;0.70;0.70;;;19.90;73.40;;;;;;4994463;28;20504;-75
2022/10/10 10:59:01;;;;;;;0.80;0.67;;;19.90;73.40;;;;;;4994242;28;20868;-76
2022/10/10 11:01:35;;;;;;;0.70;0.70;;;19.80;72.60;;;;;;5003230;28;20507;-77
2022/10/10 11:04:04;;;;;;;0.70;0.60;;;19.70;73.70;;;;;;5009616;28;20434;-76
2022/10/10 11:06:55;;;;;;;0.70;0.67;;;19.70;73.20;;;;;;5007192;28;20477;-76
2022/10/10 11:09:26;;;;;;;0.80;0.80;;;19.80;72.80;;;;;;5008705;28;20452;-77
2022/10/10 11:12:06;;;;;;;0.70;0.70;;;19.80;73.40;;;;;;5009031;28;20477;-79
2022/10/10 11:14:51;;;;;;;0.80;0.80;;;19.90;73.00;;;;;;5009839;28;20444;-77
2022/10/10 11:17:21;;;;;;;0.70;0.60;;;20.00;72.50;;;;;;5015968;28;20469;-77
2022/10/10 11:19:56;;;;;;;1.63;0.93;;;19.90;71.70;;;;;;5016231;28;20403;-77
2022/10/10 11:22:28;;;;;;;0.70;0.70;;;20.00;72.70;;;;;;5013748;28;20478;-75
2022/10/10 11:24:59;;;;;;;0.70;0.70;;;20.10;72.40;;;;;;5013130;28;20437;-76
2022/10/10 11:27:30;;;;;;;0.80;0.80;;;20.30;72.60;;;;;;5015516;28;20425;-76
2022/10/10 11:30:14;;;;;;;0.60;0.60;;;20.50;71.80;;;;;;5014005;28;20433;-76
2022/10/10 11:32:47;;;;;;;0.80;0.80;;;20.50;71.10;;;;;;5011428;28;20461;-77
2022/10/10 11:35:21;;;;;;;2.13;0.80;;;20.50;70.00;;;;;;5014738;28;20434;-78
2022/10/10 11:37:55;;;;;;;0.70;0.70;;;20.70;71.90;;;;;;5015957;28;20472;-77
2022/10/10 11:40:42;;;;;;;0.70;0.70;;;20.60;69.90;;;;;;5012923;28;20420;-78
2022/10/10 11:43:15;;;;;;;0.80;0.80;;;20.50;69.30;;;;;;5015493;28;20429;-76
2022/10/10 11:45:45;;;;;;;0.90;0.80;;;20.60;70.00;;;;;;5014327;28;20416;-77
2022/10/10 11:48:23;;;;;;;1.00;1.00;;;20.80;70.10;;;;;;5012757;28;20422;-77
2022/10/10 11:50:58;;;;;;;1.00;0.80;;;20.90;70.20;;;;;;5013667;28;20473;-77
2022/10/10 11:53:32;;;;;;;0.90;0.60;;;21.10;68.60;;;;;;5012453;28;20440;-77
2022/10/10 11:56:03;;;;;;;0.70;0.70;;;21.30;67.00;;;;;;5010872;28;20425;-77
2022/10/10 11:58:37;;;;;;;0.70;0.70;;;21.50;67.60;;;;;;5010426;28;20461;-78
2022/10/10 12:01:12;;;;;;;0.70;0.60;;;21.60;66.50;;;;;;5010418;28;20517;-76
2022/10/10 12:03:39;;;;;;;0.90;0.80;;;21.80;65.10;;;;;;5010568;28;20445;-77
2022/10/10 12:06:14;;;;;;;0.77;0.70;;;21.80;65.60;;;;;;5008956;28;20451;-76
2022/10/10 12:08:47;;;;;;;0.80;0.80;;;22.00;65.30;;;;;;5009819;28;20437;-77
2022/10/10 12:11:19;;;;;;;0.80;0.80;;;22.20;63.40;;;;;;5010958;28;20469;-77
2022/10/10 12:13:49;;;;;;;0.80;0.77;;;22.40;63.20;;;;;;5011591;28;20937;-77
2022/10/10 12:16:19;;;;;;;0.80;0.70;;;22.50;63.40;;;;;;5010717;28;20437;-77
2022/10/10 12:18:51;;;;;;;0.80;0.80;;;22.80;62.10;;;;;;5010229;28;20480;-76
2022/10/10 12:21:20;;;;;;;0.80;0.70;;;22.90;62.10;;;;;;5010235;28;21038;-77
2022/10/10 12:23:59;;;;;;;0.80;0.80;;;23.00;61.30;;;;;;5009844;28;20469;-76
2022/10/10 12:26:46;;;;;;;1.10;0.70;;;22.90;62.40;;;;;;5010383;28;20455;-78
2022/10/10 12:29:12;;;;;;;0.80;0.80;;;23.20;61.50;;;;;;5011499;28;20449;-77
2022/10/10 12:31:40;;;;;;;0.77;0.77;;;23.30;60.30;;;;;;5010735;28;20548;-77
2022/10/10 12:34:14;;;;;;;0.80;0.80;;;23.30;61.80;;;;;;5009927;28;20441;-77
2022/10/10 12:37:10;;;;;;;0.80;0.80;;;23.40;60.50;;;;;;5010077;28;20489;-77
2022/10/10 12:40:00;;;;;;;1.00;0.90;;;23.60;59.30;;;;;;5009860;28;20446;-77
2022/10/10 12:42:29;;;;;;;0.80;0.80;;;23.80;60.10;;;;;;5009287;28;20465;-77
2022/10/10 12:44:55;;;;;;;0.80;0.80;;;24.20;59.00;;;;;;5009915;28;20480;-79
2022/10/10 12:47:35;;;;;;;0.90;0.80;;;24.50;57.90;;;;;;5009782;28;20974;-78
2022/10/10 12:50:04;;;;;;;0.80;0.80;;;24.70;57.60;;;;;;5009956;28;20426;-77
2022/10/10 12:52:34;;;;;;;0.63;0.63;;;24.60;57.40;;;;;;5010217;28;20829;-77
2022/10/10 12:55:07;;;;;;;1.00;0.90;;;24.60;57.60;;;;;;5009506;28;20537;-77
2022/10/10 12:57:37;;;;;;;0.80;0.80;;;24.60;57.90;;;;;;5010259;28;20434;-77
2022/10/10 13:00:13;;;;;;;0.97;0.90;;;24.30;58.30;;;;;;5008941;28;20438;-77
2022/10/10 13:02:43;;;;;;;0.90;0.90;;;24.20;58.70;;;;;;5009417;28;20488;-77
2022/10/10 13:05:15;;;;;;;0.93;0.90;;;24.20;57.80;;;;;;5010050;28;20460;-77
2022/10/10 13:07:43;;;;;;;1.20;0.80;;;24.40;58.40;;;;;;5013419;28;20440;-78
2022/10/10 13:10:21;;;;;;;0.70;0.67;;;24.50;57.10;;;;;;5009888;28;20484;-79
2022/10/10 13:12:59;;;;;;;1.33;0.90;;;24.80;56.00;;;;;;5010249;28;20466;-77
2022/10/10 13:15:26;;;;;;;1.10;0.80;;;25.10;56.30;;;;;;5009673;28;20429;-77
2022/10/10 13:17:53;;;;;;;0.90;0.80;;;25.60;56.90;;;;;;5010805;28;20557;-76
2022/10/10 13:20:32;;;;;;;1.10;1.00;;;25.70;54.70;;;;;;5011147;28;20451;-78
2022/10/10 13:23:04;;;;;;;0.80;0.73;;;25.40;55.10;;;;;;5009572;28;20434;-77
2022/10/10 13:25:33;;;;;;;1.10;0.83;;;25.00;56.20;;;;;;5009964;28;20779;-78
2022/10/10 13:28:00;;;;;;;0.70;0.70;;;24.70;56.20;;;;;;5007843;28;20438;-79
2022/10/10 13:30:27;;;;;;;0.80;0.80;;;24.20;57.70;;;;;;5008087;28;20453;-76
2022/10/10 13:32:55;;;;;;;1.40;0.73;;;24.10;58.60;;;;;;5008964;28;20462;-77
2022/10/10 13:35:25;;;;;;;1.30;0.87;;;24.10;58.00;;;;;;5009071;28;20461;-77
2022/10/10 13:37:55;;;;;;;2.20;1.20;;;23.90;57.60;;;;;;5007578;28;20485;-76
2022/10/10 13:40:22;;;;;;;0.97;0.97;;;23.90;57.90;;;;;;5009345;28;20438;-77
2022/10/10 13:42:51;;;;;;;0.97;0.83;;;23.70;55.10;;;;;;5008731;28;20450;-76
2022/10/10 13:45:36;;;;;;;1.00;0.90;;;23.60;55.00;;;;;;5009165;28;20434;-76
2022/10/10 13:48:25;;;;;;;0.80;0.80;;;23.70;55.50;;;;;;5008922;28;20438;-77
2022/10/10 13:51:06;;;;;;;0.87;0.87;;;24.50;55.20;;;;;;5009048;28;20543;-77
2022/10/10 13:53:52;;;;;;;0.80;0.80;;;25.40;53.30;;;;;;5008605;28;20425;-76
2022/10/10 13:56:29;;;;;;;0.90;0.90;;;25.60;54.70;;;;;;5008427;28;20457;-77
2022/10/10 13:59:07;;;;;;;0.90;0.87;;;25.60;55.50;;;;;;5008966;28;20469;-76
2022/10/10 14:01:37;;;;;;;0.80;0.80;;;25.60;56.40;;;;;;5009003;28;20481;-76
2022/10/10 14:04:17;;;;;;;1.03;0.93;;;26.30;56.10;;;;;;5009684;28;20448;-77
2022/10/10 14:06:53;;;;;;;1.10;0.90;;;28.40;53.20;;;;;;5008795;28;20565;-76
2022/10/10 14:09:26;;;;;;;0.93;0.83;;;30.90;48.20;;;;;;5009830;28;20432;-78
2022/10/10 14:11:55;;;;;;;0.90;0.80;;;33.20;44.80;;;;;;5008186;28;20479;-77
2022/10/10 14:14:25;;;;;;;0.77;0.77;;;34.40;42.10;;;;;;5008581;28;20453;-78
2022/10/10 14:16:59;;;;;;;0.73;0.70;;;34.50;41.50;;;;;;5008865;28;20441;-78
2022/10/10 14:19:26;;;;;;;1.17;1.03;;;33.60;41.70;;;;;;5006063;28;20481;-77
2022/10/10 14:21:53;;;;;;;0.80;0.80;;;32.60;43.10;;;;;;4997241;28;20842;-76
2022/10/10 14:24:21;;;;;;;1.63;1.10;;;31.70;45.20;;;;;;4995947;28;20455;-76
2022/10/10 14:26:47;;;;;;;1.17;1.00;;;31.30;45.50;;;;;;4996893;28;20452;-75
2022/10/10 14:29:16;;;;;;;0.80;0.80;;;30.90;46.20;;;;;;4997788;28;20453;-77
2022/10/10 14:31:45;;;;;;;0.90;0.80;;;30.10;47.20;;;;;;4999338;28;20484;-77
2022/10/10 14:34:13;;;;;;;0.90;0.80;;;29.50;48.20;;;;;;4996969;28;20446;-75
2022/10/10 14:36:44;;;;;;;0.80;0.80;;;29.30;48.80;;;;;;4994442;28;20544;-76
2022/10/10 14:39:14;;;;;;;1.00;0.90;;;29.10;49.10;;;;;;4994358;28;20480;-76
2022/10/10 14:41:40;;;;;;;0.83;0.83;;;28.90;49.60;;;;;;4994249;28;20524;-76
2022/10/10 14:44:07;;;;;;;1.17;0.87;;;28.70;49.90;;;;;;4994226;28;20449;-76
2022/10/10 14:46:35;;;;;;;0.90;0.90;;;28.40;50.90;;;;;;4994416;28;20855;-77
2022/10/10 14:49:03;;;;;;;0.80;0.80;;;28.00;51.70;;;;;;4996173;28;20449;-76
2022/10/10 14:51:35;;;;;;;0.70;0.70;;;27.60;52.30;;;;;;4994720;28;20881;-76
2022/10/10 14:54:03;;;;;;;0.97;0.90;;;27.30;53.60;;;;;;4994869;28;20441;-75
2022/10/10 14:56:29;;;;;;;1.47;0.80;;;27.10;53.80;;;;;;4993846;28;21019;-74
2022/10/10 14:58:56;;;;;;;0.90;0.90;;;26.90;54.40;;;;;;4993951;28;20480;-75
2022/10/10 15:01:23;;;;;;;0.83;0.83;;;26.70;54.70;;;;;;4993528;28;20489;-74
2022/10/10 15:03:50;;;;;;;1.00;0.70;;;26.60;54.70;;;;;;4993927;28;20602;-74
2022/10/10 15:06:18;;;;;;;1.03;0.90;;;26.60;54.90;;;;;;4994761;28;20465;-78
2022/10/10 15:08:44;;;;;;;0.97;0.90;;;26.40;55.30;;;;;;4995522;28;20453;-77
2022/10/10 15:11:16;;;;;;;1.10;0.90;;;26.20;55.20;;;;;;4995265;28;20528;-78
2022/10/10 15:13:43;;;;;;;0.80;0.80;;;26.00;56.60;;;;;;4997015;28;20433;-78
2022/10/10 15:16:09;;;;;;;0.83;0.83;;;25.80;56.90;;;;;;4995292;28;20877;-78
2022/10/10 15:18:36;;;;;;;1.10;1.00;;;25.70;57.50;;;;;;4994638;28;20493;-77
2022/10/10 15:21:08;;;;;;;1.40;0.90;;;25.50;57.80;;;;;;4996120;28;20817;-77
2022/10/10 15:23:36;;;;;;;1.53;1.07;;;25.40;58.20;;;;;;4994825;28;20445;-78
2022/10/10 15:26:03;;;;;;;0.87;0.87;;;25.30;57.90;;;;;;4994127;28;20460;-77
2022/10/10 15:28:30;;;;;;;0.77;0.77;;;25.10;57.60;;;;;;4994735;28;20456;-78
2022/10/10 15:30:57;;;;;;;0.83;0.83;;;25.00;58.10;;;;;;4995159;28;20846;-78
2022/10/10 15:33:24;;;;;;;1.77;1.10;;;25.00;58.20;;;;;;4999210;28;20445;-77
2022/10/10 15:35:57;;;;;;;1.07;0.90;;;24.80;58.50;;;;;;4996703;28;20445;-77
2022/10/10 15:38:23;;;;;;;1.07;0.97;;;24.70;58.60;;;;;;4998275;28;20437;-77
2022/10/10 15:40:58;;;;;;;1.17;1.00;;;24.60;58.80;;;;;;4996357;28;20845;-77
2022/10/10 15:43:25;;;;;;;1.10;1.00;;;24.40;59.70;;;;;;4994569;28;20463;-77
2022/10/10 15:45:52;;;;;;;1.13;0.90;;;24.40;59.70;;;;;;4993886;28;20460;-77
2022/10/10 15:48:19;;;;;;;1.00;0.80;;;24.20;59.60;;;;;;4994483;28;20484;-78
2022/10/10 15:50:46;;;;;;;1.10;1.00;;;24.10;60.00;;;;;;4994144;28;20468;-77
2022/10/10 15:53:13;;;;;;;0.90;0.90;;;24.00;60.90;;;;;;4994544;28;20500;-78
2022/10/10 15:55:43;;;;;;;1.13;1.03;;;23.90;61.40;;;;;;4994123;28;20464;-78
2022/10/10 15:58:12;;;;;;;1.20;1.00;;;23.80;62.10;;;;;;4993880;28;20449;-77
2022/10/10 16:00:39;;;;;;;1.00;0.90;;;23.70;62.40;;;;;;4994161;28;20494;-77
2022/10/10 16:03:06;;;;;;;0.90;0.90;;;23.60;63.10;;;;;;4998536;28;20434;-78